Time;durP1;ratioP1;P1;durP2;ratioP2;P2;SDS_P1;SDS_P2;PMS_P1;PMS_P2;Temp;Humidity;BMP_temperature;BMP_pressure;BME280_temperature;BME280_humidity;BME280_pressure;Samples;Min_cycle;Max_cycle;Signal;HPM_P1;HPM_P2
2021/12/06 00:00:18;;;;;;;8.15;5.22;;;;;;;3.83;99.57;100924.09;5039224;28;20052;-75
2021/12/06 00:02:47;;;;;;;6.72;4.28;;;;;;;3.88;98.86;100916.06;5040350;28;20123;-73
2021/12/06 00:05:15;;;;;;;10.15;4.88;;;;;;;3.90;98.66;100912.47;5043988;28;20151;-74
2021/12/06 00:07:42;;;;;;;7.32;5.53;;;;;;;3.91;99.40;100931.53;5034550;28;20131;-76
2021/12/06 00:10:10;;;;;;;13.07;4.38;;;;;;;3.90;98.67;100941.06;5055559;28;20056;-74
2021/12/06 00:12:37;;;;;;;6.32;4.60;;;;;;;3.89;99.50;100939.41;5055124;28;20136;-75
2021/12/06 00:15:05;;;;;;;10.13;4.65;;;;;;;3.93;99.17;100938.31;5053308;28;20048;-75
2021/12/06 00:17:32;;;;;;;8.10;4.70;;;;;;;3.92;99.08;100939.22;5051407;28;20522;-74
2021/12/06 00:20:00;;;;;;;10.85;5.82;;;;;;;3.91;98.38;100942.75;5055393;28;20047;-73
2021/12/06 00:22:26;;;;;;;6.63;4.97;;;;;;;3.92;98.48;100947.03;5058180;28;20086;-73
2021/12/06 00:24:56;;;;;;;8.82;4.55;;;;;;;3.98;99.26;100955.38;5056491;28;20045;-74
2021/12/06 00:27:23;;;;;;;8.48;4.95;;;;;;;3.99;98.42;100951.88;5054645;28;20058;-73
2021/12/06 00:29:50;;;;;;;5.25;3.70;;;;;;;3.99;98.38;100956.19;5054927;28;20063;-76
2021/12/06 00:32:17;;;;;;;5.25;4.07;;;;;;;4.00;98.89;100969.13;5055684;28;20033;-74
2021/12/06 00:34:43;;;;;;;4.78;3.95;;;;;;;3.98;98.43;100970.97;5052947;28;20608;-75
2021/12/06 00:37:17;;;;;;;19.30;4.18;;;;;;;3.93;98.43;100971.28;5054417;28;20040;-74
2021/12/06 00:39:45;;;;;;;5.88;4.57;;;;;;;3.91;98.27;100973.09;5052255;28;20120;-74
2021/12/06 00:42:12;;;;;;;7.20;4.07;;;;;;;3.90;98.64;100982.63;5054924;28;20149;-73
2021/12/06 00:44:39;;;;;;;8.73;4.82;;;;;;;3.88;98.66;100981.88;5052809;28;20141;-74
2021/12/06 00:47:08;;;;;;;5.30;4.18;;;;;;;3.90;98.93;100984.41;5055391;28;20044;-73
2021/12/06 00:49:36;;;;;;;13.10;4.85;;;;;;;3.90;98.98;100985.22;5054061;28;20048;-74
2021/12/06 00:52:03;;;;;;;9.93;5.20;;;;;;;3.88;98.38;100987.09;5054383;28;20040;-74
2021/12/06 00:54:35;;;;;;;12.15;3.63;;;;;;;3.88;98.83;100994.88;5052396;28;20053;-74
2021/12/06 00:57:03;;;;;;;7.45;4.15;;;;;;;3.88;98.65;101000.06;5037856;28;20084;-75
2021/12/06 00:59:31;;;;;;;12.65;4.90;;;;;;;3.87;98.57;101000.13;5054207;28;20052;-76
2021/12/06 01:02:00;;;;;;;12.00;5.82;;;;;;;3.87;98.52;100997.53;5052655;28;20094;-75
2021/12/06 01:04:27;;;;;;;5.90;4.60;;;;;;;3.82;98.65;100997.75;5059895;28;20067;-74
2021/12/06 01:06:54;;;;;;;13.10;6.05;;;;;;;3.77;99.00;100996.31;5057812;28;20045;-74
2021/12/06 01:09:21;;;;;;;12.55;4.75;;;;;;;3.78;98.61;100998.81;5060689;28;20371;-74
2021/12/06 01:11:50;;;;;;;12.82;4.75;;;;;;;3.86;98.93;101007.09;5055194;28;20054;-76
2021/12/06 01:14:17;;;;;;;10.40;5.18;;;;;;;3.86;98.96;101007.09;5069297;28;20032;-75
2021/12/06 01:16:43;;;;;;;8.70;4.20;;;;;;;3.86;98.89;101012.28;5066411;28;20050;-74
2021/12/06 01:19:10;;;;;;;9.98;6.38;;;;;;;3.89;99.08;101017.34;5054705;28;20052;-75
2021/12/06 01:21:46;;;;;;;6.22;4.70;;;;;;;3.88;98.92;101020.88;5056186;28;20051;-74
2021/12/06 01:24:17;;;;;;;12.48;6.20;;;;;;;3.89;98.43;101025.16;5056581;28;20097;-74
2021/12/06 01:27:05;;;;;;;9.40;4.95;;;;;;;3.84;98.56;101028.88;5039146;28;20059;-74
2021/12/06 01:29:48;;;;;;;6.93;4.82;;;;;;;3.89;98.71;101032.94;5058105;28;20390;-74
2021/12/06 01:32:24;;;;;;;;;;;;;;;3.87;98.82;101026.97;5062489;28;20055;-74
2021/12/06 01:40:22;;;;;;;7.68;5.22;;;;;;;3.76;98.70;101038.78;5060482;28;20128;-76
2021/12/06 01:42:49;;;;;;;6.60;4.72;;;;;;;3.80;98.99;101041.16;5054595;28;20072;-74
2021/12/06 01:45:17;;;;;;;6.60;4.97;;;;;;;3.84;99.00;101040.09;5050934;28;20057;-74
2021/12/06 01:47:46;;;;;;;8.45;5.63;;;;;;;3.82;98.18;101049.72;5035093;28;20041;-76
2021/12/06 01:50:16;;;;;;;6.50;4.88;;;;;;;3.91;98.55;101051.88;5048805;28;20049;-74
2021/12/06 01:52:45;;;;;;;10.43;5.25;;;;;;;3.92;98.08;101050.13;5053460;28;20117;-75
2021/12/06 01:55:18;;;;;;;8.38;5.45;;;;;;;3.94;98.69;101051.75;5052161;28;20041;-75
2021/12/06 01:57:44;;;;;;;8.15;5.82;;;;;;;3.90;98.67;101065.78;5053849;28;20055;-73
2021/12/06 02:00:14;;;;;;;6.60;5.13;;;;;;;3.94;98.10;101070.75;5049610;28;20107;-75
2021/12/06 02:02:42;;;;;;;8.43;5.85;;;;;;;3.92;98.42;101073.53;5054098;28;20052;-74
2021/12/06 02:05:10;;;;;;;8.18;5.28;;;;;;;3.88;97.90;101078.03;5047210;28;20132;-74
2021/12/06 02:07:36;;;;;;;9.45;5.88;;;;;;;3.89;98.20;101079.72;5052748;28;20045;-75
2021/12/06 02:10:04;;;;;;;7.65;5.35;;;;;;;3.84;98.42;101081.66;5060676;28;20110;-73
2021/12/06 02:12:32;;;;;;;12.55;6.80;;;;;;;3.80;98.23;101087.06;5055214;28;20049;-75
2021/12/06 02:15:04;;;;;;;9.40;5.68;;;;;;;3.76;98.52;101078.59;5053581;28;20038;-75
2021/12/06 02:17:36;;;;;;;7.20;5.10;;;;;;;3.68;98.12;101079.88;5048402;28;20056;-74
2021/12/06 02:20:07;;;;;;;8.35;6.07;;;;;;;3.67;98.02;101084.19;5056000;28;20071;-73
2021/12/06 02:22:38;;;;;;;6.15;5.15;;;;;;;3.70;98.17;101093.59;5049325;28;20048;-75
2021/12/06 02:25:12;;;;;;;15.70;5.70;;;;;;;3.78;98.39;101083.69;5052247;28;20132;-74
2021/12/06 02:27:39;;;;;;;6.97;5.70;;;;;;;3.77;98.80;101088.06;5033055;28;20102;-74
2021/12/06 02:30:08;;;;;;;7.80;5.15;;;;;;;3.76;98.62;101090.75;5039840;28;20051;-74
2021/12/06 02:32:35;;;;;;;6.63;4.88;;;;;;;3.77;98.29;101100.22;5049912;28;20068;-75
2021/12/06 02:35:04;;;;;;;10.98;5.38;;;;;;;3.75;98.55;101094.25;5036278;28;20380;-74
2021/12/06 02:37:33;;;;;;;8.10;5.22;;;;;;;3.73;98.67;101089.13;5050381;28;20607;-73
2021/12/06 02:40:04;;;;;;;9.95;6.43;;;;;;;3.68;98.27;101093.69;5052992;28;20064;-74
2021/12/06 02:42:31;;;;;;;12.63;5.25;;;;;;;3.64;98.30;101094.75;5034097;28;20135;-75
2021/12/06 02:44:58;;;;;;;8.55;5.88;;;;;;;3.70;98.61;101097.06;5036369;28;20052;-74
2021/12/06 02:47:25;;;;;;;14.60;5.90;;;;;;;3.74;98.48;101100.34;5033210;28;20749;-74
2021/12/06 02:49:51;;;;;;;16.67;6.88;;;;;;;3.72;98.26;101102.16;5050052;28;20048;-74
2021/12/06 02:52:19;;;;;;;16.88;6.50;;;;;;;3.70;98.41;101111.78;5054049;28;20048;-75
2021/12/06 02:54:53;;;;;;;14.20;6.32;;;;;;;3.69;98.58;101113.56;5052396;28;20181;-74
2021/12/06 02:57:32;;;;;;;14.32;6.38;;;;;;;3.71;98.19;101103.94;5056195;28;20123;-73
2021/12/06 02:59:59;;;;;;;14.93;6.90;;;;;;;3.72;98.32;101108.22;5030638;28;20121;-75
2021/12/06 03:02:30;;;;;;;11.40;5.68;;;;;;;3.72;98.34;101112.56;5051757;28;20045;-74
2021/12/06 03:04:57;;;;;;;7.82;5.90;;;;;;;3.68;98.08;101109.25;5030499;28;20157;-74
2021/12/06 03:07:25;;;;;;;10.02;6.50;;;;;;;3.69;98.28;101112.72;5048622;28;20045;-73
2021/12/06 03:09:54;;;;;;;6.68;4.68;;;;;;;3.68;98.45;101111.88;5050125;28;20398;-76
2021/12/06 03:12:25;;;;;;;9.68;5.60;;;;;;;3.67;98.63;101110.19;5051157;28;20304;-74
2021/12/06 03:14:53;;;;;;;10.80;5.80;;;;;;;3.66;98.40;101118.88;5053177;28;20381;-73
2021/12/06 03:17:22;;;;;;;16.90;6.88;;;;;;;3.64;98.57;101128.50;5051702;28;20045;-75
2021/12/06 03:19:49;;;;;;;10.90;6.50;;;;;;;3.63;98.44;101123.38;5056752;28;20048;-74
2021/12/06 03:22:17;;;;;;;12.52;6.53;;;;;;;3.61;98.23;101122.63;5034394;28;20101;-73
2021/12/06 03:24:45;;;;;;;9.88;5.07;;;;;;;3.57;98.50;101128.84;5060720;28;20056;-74
2021/12/06 03:27:12;;;;;;;9.93;5.93;;;;;;;3.51;98.33;101129.13;5041501;28;20077;-75
2021/12/06 03:29:42;;;;;;;6.93;5.65;;;;;;;3.48;98.35;101135.31;5069173;28;20079;-73
2021/12/06 03:32:09;;;;;;;9.38;5.82;;;;;;;3.48;98.23;101137.91;5076201;28;20044;-73
2021/12/06 03:34:36;;;;;;;9.43;5.60;;;;;;;3.48;98.32;101127.50;5075906;28;20123;-75
2021/12/06 03:37:05;;;;;;;8.02;5.38;;;;;;;3.47;98.16;101133.63;5051049;28;20044;-74
2021/12/06 03:39:37;;;;;;;6.50;5.18;;;;;;;3.46;98.29;101131.94;5056619;28;20049;-74
2021/12/06 03:42:08;;;;;;;10.00;6.20;;;;;;;3.45;98.51;101138.03;5056461;28;20041;-75
2021/12/06 03:44:36;;;;;;;7.85;5.20;;;;;;;3.43;98.86;101142.44;5057043;28;20299;-74
2021/12/06 03:47:06;;;;;;;9.68;5.70;;;;;;;3.46;98.50;101146.63;5060980;28;20040;-74
2021/12/06 03:49:36;;;;;;;6.55;4.72;;;;;;;3.48;98.34;101145.69;5062195;28;20064;-74
2021/12/06 03:52:04;;;;;;;8.52;5.57;;;;;;;3.47;98.41;101148.34;5064974;28;20119;-75
2021/12/06 03:54:32;;;;;;;7.35;4.72;;;;;;;3.41;98.93;101143.41;5040206;28;20053;-74
2021/12/06 03:56:59;;;;;;;7.78;6.10;;;;;;;3.28;98.87;101137.09;5059150;28;20051;-74
2021/12/06 03:59:26;;;;;;;13.02;6.15;;;;;;;3.31;98.66;101160.28;5050479;28;20082;-74
2021/12/06 04:01:52;;;;;;;9.73;5.63;;;;;;;3.30;98.67;101159.47;5059135;28;20043;-74
2021/12/06 04:04:22;;;;;;;9.23;5.72;;;;;;;3.33;98.47;101172.28;5030828;28;20119;-75
2021/12/06 04:06:49;;;;;;;9.73;6.13;;;;;;;3.36;98.53;101156.59;5034501;28;20129;-74
2021/12/06 04:09:17;;;;;;;9.23;5.22;;;;;;;3.40;99.01;101162.50;5034385;28;20076;-74
2021/12/06 04:11:45;;;;;;;9.75;4.88;;;;;;;3.35;98.86;101169.66;5036284;28;20048;-74
2021/12/06 04:14:12;;;;;;;9.27;5.53;;;;;;;3.31;98.79;101166.34;5030542;28;20044;-74
2021/12/06 04:16:40;;;;;;;7.88;4.32;;;;;;;3.27;98.56;101162.19;5031773;28;20048;-73
2021/12/06 04:19:08;;;;;;;6.57;4.55;;;;;;;3.26;98.38;101160.50;5042493;28;20045;-74
2021/12/06 04:21:37;;;;;;;6.65;4.75;;;;;;;3.22;98.76;101153.75;5044055;28;20149;-74
2021/12/06 04:24:04;;;;;;;6.65;5.28;;;;;;;3.10;98.40;101152.56;5042230;28;20072;-73
2021/12/06 04:26:31;;;;;;;9.18;5.82;;;;;;;3.00;98.83;101159.06;5037008;28;20052;-74
2021/12/06 04:29:01;;;;;;;6.53;4.82;;;;;;;2.84;98.55;101150.22;5037168;28;20041;-75
2021/12/06 04:31:28;;;;;;;6.70;4.75;;;;;;;2.80;98.67;101159.06;5028261;28;20038;-75
2021/12/06 04:33:55;;;;;;;7.32;5.53;;;;;;;2.66;97.94;101161.38;5027287;28;20045;-74
2021/12/06 04:36:22;;;;;;;8.60;5.47;;;;;;;2.60;97.67;101169.38;5035065;28;20056;-74
2021/12/06 04:38:52;;;;;;;8.60;5.18;;;;;;;2.48;97.67;101162.09;5034323;28;20059;-74
2021/12/06 04:41:19;;;;;;;8.68;5.85;;;;;;;2.35;97.14;101170.41;5033785;28;20037;-73
2021/12/06 04:43:48;;;;;;;6.70;5.13;;;;;;;2.19;97.85;101170.16;5034699;28;20049;-74
2021/12/06 04:46:15;;;;;;;8.68;4.38;;;;;;;2.08;97.50;101172.31;5031250;28;20053;-75
2021/12/06 04:48:42;;;;;;;5.57;4.47;;;;;;;2.02;97.34;101182.06;5032464;28;20147;-75
2021/12/06 04:51:09;;;;;;;5.43;4.75;;;;;;;1.99;97.49;101187.34;5035769;28;20768;-73
2021/12/06 04:53:37;;;;;;;34.80;5.43;;;;;;;1.96;97.12;101185.72;5053830;28;20075;-75
2021/12/06 04:56:12;;;;;;;12.20;4.05;;;;;;;1.89;97.17;101193.75;5031293;28;20105;-73
2021/12/06 04:58:44;;;;;;;7.95;3.70;;;;;;;1.71;97.22;101202.22;5029554;28;20053;-74
2021/12/06 05:01:15;;;;;;;7.07;4.05;;;;;;;1.58;97.03;101200.13;5033686;28;20567;-74
2021/12/06 05:03:42;;;;;;;18.90;3.63;;;;;;;1.52;97.66;101205.53;5034140;28;20049;-73
2021/12/06 05:06:11;;;;;;;6.03;4.30;;;;;;;1.49;97.68;101205.63;5036873;28;20049;-75
2021/12/06 05:08:41;;;;;;;7.80;4.72;;;;;;;1.42;97.63;101206.75;5052236;28;20040;-74
2021/12/06 05:11:10;;;;;;;7.80;4.80;;;;;;;1.35;97.28;101208.69;5039952;28;20056;-72
2021/12/06 05:13:40;;;;;;;5.75;4.05;;;;;;;1.27;97.83;101209.84;5052959;28;20051;-74
2021/12/06 05:16:06;;;;;;;9.93;3.92;;;;;;;1.26;98.23;101213.34;5057214;28;20123;-73
2021/12/06 05:18:33;;;;;;;4.60;3.95;;;;;;;1.18;98.87;101212.75;5056667;28;20048;-74
2021/12/06 05:21:01;;;;;;;5.88;4.63;;;;;;;1.20;98.29;101214.38;5063132;28;20044;-74
2021/12/06 05:23:28;;;;;;;4.65;3.85;;;;;;;1.13;98.80;101212.03;5029431;28;20071;-74
2021/12/06 05:25:56;;;;;;;6.68;4.80;;;;;;;1.09;97.84;101218.22;5074970;28;20119;-73
2021/12/06 05:28:28;;;;;;;5.18;3.85;;;;;;;1.01;97.98;101217.63;5060088;28;20502;-72
2021/12/06 05:30:57;;;;;;;5.00;3.10;;;;;;;0.95;98.12;101226.44;5074152;28;20071;-75
2021/12/06 05:33:30;;;;;;;3.67;2.90;;;;;;;0.95;98.50;101222.97;5048090;28;20375;-73
2021/12/06 05:35:58;;;;;;;4.70;3.75;;;;;;;0.89;98.35;101231.81;5044665;28;20078;-72
2021/12/06 05:38:26;;;;;;;6.60;4.68;;;;;;;0.90;98.08;101225.72;5051332;28;20054;-73
2021/12/06 05:40:53;;;;;;;8.45;4.00;;;;;;;0.79;97.75;101226.97;5056010;28;20123;-72
2021/12/06 05:43:20;;;;;;;5.55;4.22;;;;;;;0.69;97.95;101233.34;5054379;28;20052;-73
2021/12/06 05:45:53;;;;;;;4.28;3.70;;;;;;;0.64;98.01;101237.78;5032745;28;20040;-73
2021/12/06 05:48:20;;;;;;;5.13;3.85;;;;;;;0.62;98.12;101249.91;5056981;28;20032;-73
2021/12/06 05:50:48;;;;;;;6.65;3.70;;;;;;;0.58;97.79;101245.75;5056905;28;20044;-73
2021/12/06 05:53:15;;;;;;;4.82;3.78;;;;;;;0.52;97.93;101247.66;5055994;28;20049;-73
2021/12/06 05:55:43;;;;;;;5.57;3.53;;;;;;;0.46;97.97;101253.84;5039627;28;20052;-74
2021/12/06 05:58:12;;;;;;;5.55;3.97;;;;;;;0.44;98.29;101249.63;5051425;28;20113;-73
2021/12/06 06:00:39;;;;;;;7.50;4.50;;;;;;;0.46;98.06;101246.09;5058232;28;20047;-74
2021/12/06 06:03:08;;;;;;;5.38;4.00;;;;;;;0.48;98.34;101249.50;5051796;28;20154;-70
2021/12/06 06:05:35;;;;;;;5.78;4.18;;;;;;;0.57;98.26;101245.81;5054366;28;20052;-71
2021/12/06 06:08:03;;;;;;;6.22;4.43;;;;;;;0.71;99.22;101243.63;5055874;28;20067;-73
2021/12/06 06:10:30;;;;;;;11.20;4.30;;;;;;;0.84;98.89;101251.78;5055904;28;20043;-74
2021/12/06 06:12:57;;;;;;;4.53;3.45;;;;;;;0.83;99.12;101257.00;5053235;28;20037;-71
2021/12/06 06:15:24;;;;;;;7.40;3.58;;;;;;;0.80;99.21;101252.78;5053262;28;20044;-74
2021/12/06 06:17:52;;;;;;;5.80;4.18;;;;;;;0.86;99.35;101244.00;5056920;28;20424;-73
2021/12/06 06:20:22;;;;;;;6.78;3.92;;;;;;;0.93;99.68;101248.91;5058348;28;20028;-73
2021/12/06 06:22:51;;;;;;;4.00;3.58;;;;;;;0.99;99.58;101250.47;5047712;28;20048;-73
2021/12/06 06:25:19;;;;;;;4.93;3.47;;;;;;;1.04;99.39;101243.38;5050520;28;20530;-74
2021/12/06 06:27:46;;;;;;;3.85;2.92;;;;;;;1.04;99.79;101251.13;5069131;28;20053;-73
2021/12/06 06:30:13;;;;;;;3.95;2.70;;;;;;;1.03;99.57;101246.84;5060508;28;20043;-68
2021/12/06 06:32:41;;;;;;;3.50;3.15;;;;;;;1.06;99.41;101257.13;5063688;28;20578;-71
2021/12/06 06:35:09;;;;;;;6.05;3.80;;;;;;;1.02;99.61;101248.63;5041475;28;20065;-73
2021/12/06 06:37:37;;;;;;;3.17;2.33;;;;;;;1.01;99.71;101248.69;5054242;28;20040;-69
2021/12/06 06:40:05;;;;;;;4.78;3.25;;;;;;;0.99;99.37;101255.63;5050989;28;20127;-69
2021/12/06 06:42:31;;;;;;;28.80;4.03;;;;;;;0.89;99.26;101256.81;5039825;28;20499;-72
2021/12/06 06:44:58;;;;;;;3.97;3.47;;;;;;;0.77;99.25;101265.81;5034309;28;20056;-71
2021/12/06 06:47:25;;;;;;;3.58;2.92;;;;;;;0.81;99.66;101261.38;5036862;28;20068;-72
2021/12/06 06:49:53;;;;;;;6.55;3.45;;;;;;;0.79;99.10;101265.75;5047536;28;20045;-71
2021/12/06 06:52:20;;;;;;;4.47;2.58;;;;;;;0.81;98.89;101272.59;5035906;28;20044;-73
2021/12/06 06:54:48;;;;;;;6.90;3.35;;;;;;;0.81;98.78;101271.72;5051884;28;20072;-70
2021/12/06 06:57:15;;;;;;;3.05;2.65;;;;;;;0.78;99.04;101267.50;5053097;28;20125;-70
2021/12/06 06:59:44;;;;;;;4.63;3.72;;;;;;;0.79;98.67;101265.75;5054053;28;20116;-72
2021/12/06 07:02:13;;;;;;;5.10;3.88;;;;;;;0.73;98.74;101273.69;5052154;28;20044;-70
2021/12/06 07:04:40;;;;;;;4.20;3.45;;;;;;;0.63;98.71;101282.63;5055150;28;20044;-71
2021/12/06 07:07:09;;;;;;;3.13;2.55;;;;;;;0.52;99.09;101283.84;5058605;28;20130;-71
2021/12/06 07:09:35;;;;;;;3.45;2.50;;;;;;;0.45;99.41;101288.34;5056028;28;20506;-74
2021/12/06 07:12:05;;;;;;;3.83;2.30;;;;;;;0.43;98.80;101287.56;5053342;28;20110;-73
2021/12/06 07:14:33;;;;;;;3.70;2.92;;;;;;;0.41;98.77;101291.91;5035639;28;20139;-72
2021/12/06 07:17:00;;;;;;;3.15;2.28;;;;;;;0.34;99.20;101294.72;5045935;28;20076;-73
2021/12/06 07:19:27;;;;;;;4.78;2.72;;;;;;;0.33;99.30;101299.03;5067576;28;20094;-73
2021/12/06 07:21:53;;;;;;;3.08;2.30;;;;;;;0.33;98.63;101296.47;5082604;28;20021;-72
2021/12/06 07:24:20;;;;;;;5.50;2.58;;;;;;;0.35;98.99;101306.75;5075709;28;20128;-74
2021/12/06 07:26:47;;;;;;;21.17;4.15;;;;;;;0.36;99.08;101309.31;5053971;28;20045;-75
2021/12/06 07:29:15;;;;;;;3.47;2.25;;;;;;;0.42;99.52;101301.38;5051998;28;20032;-74
2021/12/06 07:31:42;;;;;;;3.70;2.85;;;;;;;0.45;99.13;101303.84;5048753;28;20041;-72
2021/12/06 07:34:09;;;;;;;5.80;3.63;;;;;;;0.45;99.12;101297.84;5048562;28;20131;-74
2021/12/06 07:36:36;;;;;;;3.97;2.85;;;;;;;0.45;99.36;101309.00;5033045;28;20163;-74
2021/12/06 07:39:04;;;;;;;3.65;2.92;;;;;;;0.44;99.01;101311.66;5045381;28;20043;-74
2021/12/06 07:41:32;;;;;;;2.95;2.30;;;;;;;0.42;99.70;101308.25;5058715;28;20048;-72
2021/12/06 07:43:59;;;;;;;5.65;2.45;;;;;;;0.48;99.55;101315.84;5046871;28;20047;-73
2021/12/06 07:46:27;;;;;;;8.95;3.17;;;;;;;0.56;99.77;101309.56;5049839;28;20055;-75
2021/12/06 07:48:53;;;;;;;3.78;3.05;;;;;;;0.55;99.33;101299.28;5051583;28;20141;-74
2021/12/06 07:51:24;;;;;;;2.42;2.13;;;;;;;0.55;99.28;101300.09;5054455;28;20067;-73
2021/12/06 07:53:52;;;;;;;3.50;3.05;;;;;;;0.58;99.36;101307.78;5036960;28;20049;-73
2021/12/06 07:56:19;;;;;;;5.55;3.47;;;;;;;0.65;99.82;101318.78;5054039;28;20040;-74
2021/12/06 07:58:46;;;;;;;6.63;4.10;;;;;;;0.72;99.30;101317.72;5052924;28;20512;-74
2021/12/06 08:01:13;;;;;;;4.50;4.07;;;;;;;0.82;99.63;101314.78;5030407;28;20089;-72
2021/12/06 08:03:43;;;;;;;7.13;4.82;;;;;;;0.87;100.00;101318.94;5057330;28;20053;-72
2021/12/06 08:06:10;;;;;;;8.25;5.07;;;;;;;0.94;99.64;101309.25;5033024;28;20725;-74
2021/12/06 08:08:38;;;;;;;4.78;3.58;;;;;;;1.05;100.00;101317.50;5034361;28;20052;-74
2021/12/06 08:11:08;;;;;;;8.90;4.63;;;;;;;1.05;100.00;101318.38;5054682;28;20060;-73
2021/12/06 08:13:38;;;;;;;5.90;4.40;;;;;;;1.06;99.90;101319.19;5054133;28;20053;-75
2021/12/06 08:16:08;;;;;;;3.63;3.05;;;;;;;1.14;100.00;101322.38;5035225;28;20053;-73
2021/12/06 08:18:34;;;;;;;6.00;3.88;;;;;;;1.10;99.87;101315.63;5040462;28;20063;-71
2021/12/06 08:21:05;;;;;;;4.47;3.38;;;;;;;1.11;100.00;101317.28;5054071;28;20094;-71
2021/12/06 08:23:33;;;;;;;4.15;3.13;;;;;;;1.10;99.83;101315.63;5059790;28;20135;-71
2021/12/06 08:26:00;;;;;;;7.60;5.38;;;;;;;1.07;100.00;101318.31;5056678;28;20043;-72
2021/12/06 08:28:28;;;;;;;4.25;3.05;;;;;;;1.12;100.00;101316.41;5040913;28;20059;-76
2021/12/06 08:30:56;;;;;;;3.00;2.60;;;;;;;1.17;100.00;101312.78;5032237;28;20051;-72
2021/12/06 08:33:24;;;;;;;5.15;4.20;;;;;;;1.22;100.00;101299.69;5057325;28;20166;-72
2021/12/06 08:35:53;;;;;;;5.43;4.30;;;;;;;1.22;100.00;101295.41;5057664;28;20056;-73
2021/12/06 08:38:22;;;;;;;15.35;5.10;;;;;;;1.36;100.00;101294.91;5036822;28;20054;-74
2021/12/06 08:40:50;;;;;;;15.70;5.82;;;;;;;1.33;100.00;101292.44;5062332;28;20045;-73
2021/12/06 08:43:19;;;;;;;5.97;4.55;;;;;;;1.38;100.00;101298.31;5059061;28;20530;-73
2021/12/06 08:45:49;;;;;;;10.77;4.20;;;;;;;1.44;100.00;101298.13;5059859;28;20063;-73
2021/12/06 08:48:16;;;;;;;5.03;3.53;;;;;;;1.56;100.00;101295.09;5056309;28;20049;-72
2021/12/06 08:50:43;;;;;;;6.38;3.65;;;;;;;1.73;100.00;101291.91;5056406;28;20167;-72
2021/12/06 08:53:09;;;;;;;6.78;4.57;;;;;;;1.88;100.00;101295.72;5041701;28;20431;-74
2021/12/06 08:55:37;;;;;;;4.47;3.58;;;;;;;1.89;100.00;101300.81;5060563;28;20048;-73
2021/12/06 08:58:04;;;;;;;10.55;7.05;;;;;;;1.90;100.00;101297.34;5047483;28;20043;-71
2021/12/06 09:00:34;;;;;;;18.88;5.40;;;;;;;1.98;100.00;101299.63;5076696;28;20087;-72
2021/12/06 09:03:01;;;;;;;13.93;7.43;;;;;;;1.98;100.00;101295.31;5066135;28;20040;-72
2021/12/06 09:05:32;;;;;;;17.13;10.18;;;;;;;1.94;100.00;101298.91;5058447;28;20045;-74
2021/12/06 09:07:58;;;;;;;9.88;5.72;;;;;;;1.99;100.00;101298.75;5061992;28;20056;-72
2021/12/06 09:10:27;;;;;;;12.13;6.38;;;;;;;2.07;100.00;101291.53;5036440;28;20389;-73
2021/12/06 09:12:57;;;;;;;11.63;8.00;;;;;;;2.09;100.00;101308.75;5064147;28;20037;-74
2021/12/06 09:15:25;;;;;;;16.42;7.07;;;;;;;2.19;100.00;101310.09;5068725;28;20040;-73
2021/12/06 09:17:54;;;;;;;12.35;7.13;;;;;;;2.31;100.00;101314.84;5078170;28;20040;-73
2021/12/06 09:20:25;;;;;;;8.38;6.30;;;;;;;2.39;100.00;101315.41;5072922;28;20058;-73
2021/12/06 09:22:53;;;;;;;47.15;9.02;;;;;;;2.47;100.00;101336.72;5064348;28;20102;-74
2021/12/06 09:25:20;;;;;;;10.85;6.40;;;;;;;2.48;100.00;101323.66;5051697;28;20049;-73
2021/12/06 09:27:48;;;;;;;9.02;7.93;;;;;;;2.49;100.00;101337.50;5055500;28;20092;-75
2021/12/06 09:30:20;;;;;;;9.15;6.53;;;;;;;2.55;100.00;101335.50;5051725;28;20037;-72
2021/12/06 09:32:47;;;;;;;14.48;7.60;;;;;;;2.44;100.00;101342.00;5053607;28;20047;-72
2021/12/06 09:35:19;;;;;;;8.40;6.57;;;;;;;2.43;100.00;101342.88;5056782;28;20141;-73
2021/12/06 09:37:46;;;;;;;9.48;6.03;;;;;;;2.44;99.87;101335.06;5052205;28;20047;-73
2021/12/06 09:40:14;;;;;;;20.15;8.45;;;;;;;2.52;100.00;101332.19;5056280;28;20060;-75
2021/12/06 09:42:45;;;;;;;13.20;7.07;;;;;;;2.59;100.00;101331.03;5054800;28;20128;-74
2021/12/06 09:45:13;;;;;;;14.43;7.80;;;;;;;2.57;100.00;101327.69;5038358;28;20056;-74
2021/12/06 09:47:49;;;;;;;13.15;6.40;;;;;;;2.64;100.00;101323.97;5052452;28;20344;-72
2021/12/06 09:50:17;;;;;;;10.70;8.55;;;;;;;2.72;100.00;101320.16;5059187;28;20063;-73
2021/12/06 09:52:44;;;;;;;14.27;8.88;;;;;;;2.78;100.00;101319.09;5052743;28;20044;-77
2021/12/06 09:55:11;;;;;;;12.35;7.55;;;;;;;2.85;100.00;101323.13;5052467;28;20467;-72
2021/12/06 09:57:38;;;;;;;16.38;8.43;;;;;;;3.06;100.00;101322.31;5051395;28;20052;-73
2021/12/06 10:00:08;;;;;;;26.63;9.63;;;;;;;3.28;100.00;101330.03;5042642;28;20064;-74
2021/12/06 10:02:35;;;;;;;16.08;10.50;;;;;;;3.47;100.00;101325.78;5054355;28;20057;-72
2021/12/06 10:05:04;;;;;;;18.40;9.13;;;;;;;3.57;99.93;101326.25;5039254;28;20056;-73
2021/12/06 10:07:33;;;;;;;13.40;9.15;;;;;;;3.50;100.00;101317.84;5033180;28;20045;-71
2021/12/06 10:10:01;;;;;;;8.43;5.88;;;;;;;3.48;99.49;101327.47;5057142;28;20048;-72
2021/12/06 10:12:29;;;;;;;10.38;7.53;;;;;;;3.47;98.88;101320.59;5051884;28;20076;-75
2021/12/06 10:15:00;;;;;;;29.40;8.00;;;;;;;3.49;98.27;101318.75;5038948;28;20059;-74
2021/12/06 10:17:28;;;;;;;17.95;8.00;;;;;;;3.48;98.57;101317.09;5054917;28;20052;-74
2021/12/06 10:19:55;;;;;;;16.20;8.32;;;;;;;3.50;98.18;101315.25;5054770;28;20079;-74
2021/12/06 10:22:24;;;;;;;24.77;9.65;;;;;;;3.53;98.17;101312.53;5040332;28;20050;-73
2021/12/06 10:24:52;;;;;;;17.17;9.38;;;;;;;3.55;97.59;101308.13;5055534;28;20593;-74
2021/12/06 10:27:20;;;;;;;12.13;7.85;;;;;;;3.59;97.60;101309.69;5038467;28;20056;-72
2021/12/06 10:29:48;;;;;;;25.70;10.48;;;;;;;3.60;97.69;101311.38;5052640;28;20052;-73
2021/12/06 10:32:18;;;;;;;25.00;12.10;;;;;;;3.62;97.55;101306.97;5059926;28;20036;-74
2021/12/06 10:34:48;;;;;;;45.72;16.38;;;;;;;3.45;97.68;101306.81;5054449;28;20047;-73
2021/12/06 10:37:35;;;;;;;20.48;10.05;;;;;;;3.44;97.45;101309.47;5059921;28;20044;-74
2021/12/06 10:40:06;;;;;;;17.80;10.65;;;;;;;3.47;97.44;101301.53;5053189;28;20065;-75
2021/12/06 10:42:36;;;;;;;22.65;11.35;;;;;;;3.52;97.73;101300.44;5055149;28;20098;-73
2021/12/06 10:45:06;;;;;;;38.50;8.73;;;;;;;3.56;97.39;101299.44;5054039;28;20086;-73
2021/12/06 10:47:33;;;;;;;33.25;14.60;;;;;;;3.48;97.55;101291.13;5051939;28;20098;-72
2021/12/06 10:50:14;;;;;;;39.85;16.17;;;;;;;3.40;97.01;101288.00;5056567;28;20345;-73
2021/12/06 10:52:54;;;;;;;56.33;11.65;;;;;;;3.34;97.29;101283.03;5057776;28;20055;-71
2021/12/06 10:55:24;;;;;;;49.65;13.95;;;;;;;3.28;97.59;101278.09;5039414;28;20052;-73
2021/12/06 10:57:54;;;;;;;22.40;10.68;;;;;;;3.28;97.99;101272.91;5058581;28;20044;-73
2021/12/06 11:00:40;;;;;;;29.80;12.80;;;;;;;3.26;97.76;101268.69;5052577;28;20051;-73
2021/12/06 11:03:18;;;;;;;19.40;12.35;;;;;;;3.33;97.82;101260.56;5049802;28;20442;-70
2021/12/06 11:05:49;;;;;;;30.70;14.38;;;;;;;3.41;98.02;101258.50;5057441;28;20044;-70
2021/12/06 11:08:19;;;;;;;26.90;11.85;;;;;;;3.41;97.74;101257.66;5028340;28;20052;-70
2021/12/06 11:10:49;;;;;;;21.30;11.27;;;;;;;3.55;98.09;101244.94;5072053;28;20073;-70
2021/12/06 11:13:20;;;;;;;29.67;14.32;;;;;;;3.50;97.75;101234.75;5073784;28;20040;-69
2021/12/06 11:16:07;;;;;;;17.35;10.90;;;;;;;3.49;97.96;101238.25;5067887;28;20040;-69
2021/12/06 11:18:44;;;;;;;25.95;11.73;;;;;;;3.51;98.07;101233.00;5050519;28;20125;-68
2021/12/06 11:21:21;;;;;;;21.17;12.68;;;;;;;3.60;98.14;101241.22;5054401;28;20115;-72
2021/12/06 11:24:11;;;;;;;16.35;10.38;;;;;;;3.58;97.98;101235.25;5033894;28;20041;-70
2021/12/06 11:26:42;;;;;;;26.88;10.40;;;;;;;3.69;97.99;101233.06;5051598;28;20064;-74
2021/12/06 11:29:16;;;;;;;26.10;11.73;;;;;;;3.77;97.11;101240.53;5055482;28;20045;-72
2021/12/06 11:31:53;;;;;;;22.00;9.10;;;;;;;3.82;97.32;101234.19;5032987;28;20063;-73
2021/12/06 11:34:26;;;;;;;23.08;8.68;;;;;;;3.85;96.16;101225.44;5063853;28;20059;-73
2021/12/06 11:36:55;;;;;;;16.77;7.22;;;;;;;3.79;96.46;101220.50;5042162;28;20741;-72
2021/12/06 11:39:25;;;;;;;15.88;8.80;;;;;;;3.80;96.00;101212.66;5055030;28;20502;-75
2021/12/06 11:41:58;;;;;;;20.92;10.43;;;;;;;3.72;96.92;101211.28;5052421;28;20074;-73